Monday, December 18, 2017, 7:45 AM EST
Back to Local

KEZF, Fredericksburg, Shannon Airport

Location: Fredericksburg, VA, United States Lat: 38.267
Local Time: 7:45 AM EST (12:45 GMT) Lon: -77.45
Time Zone: US/Eastern Elev: 85 ft

Show me the last for .
Show Decoded

2017-12-18 07:15 METAR KEZF 181215Z AUTO 00000KT 10SM CLR 00/00 A3013 RMK AO2 T10021002 =
2017-12-18 06:55 METAR KEZF 181155Z AUTO 00000KT 10SM CLR 00/00 A3013 RMK AO2 T10011001 10058
                 21005 =
2017-12-18 06:35 METAR KEZF 181135Z AUTO 00000KT 10SM CLR 00/00 A3013 RMK AO2 T10051005 =
2017-12-18 06:15 METAR KEZF 181115Z AUTO 00000KT 10SM CLR 00/00 A3013 RMK AO2 T00010001 =
2017-12-18 05:55 METAR KEZF 181055Z AUTO 00000KT 10SM CLR 00/00 A3012 RMK AO2 T00010001 =
2017-12-18 05:35 METAR KEZF 181035Z AUTO 00000KT 10SM CLR 00/00 A3012 RMK AO2 T00030003 =
2017-12-18 05:15 METAR KEZF 181015Z AUTO 20004KT 10SM CLR 00/00 A3012 RMK AO2 T10031003 =
2017-12-18 04:55 METAR KEZF 180955Z AUTO 00000KT 10SM CLR 01/01 A3012 RMK AO2 T00060006 =
2017-12-18 04:35 METAR KEZF 180935Z AUTO 00000KT 10SM CLR 02/02 A3012 RMK AO2 T00150015 =
2017-12-18 04:15 METAR KEZF 180915Z AUTO 00000KT 10SM CLR 02/02 A3011 RMK AO2 T00190019 =
2017-12-18 03:55 METAR KEZF 180855Z AUTO 00000KT 10SM SCT048 03/02 A3011 RMK AO2 T00260022 =
2017-12-18 03:35 METAR KEZF 180835Z AUTO 00000KT 10SM SCT048 03/03 A3011 RMK AO2 T00300025 =
2017-12-18 03:15 METAR KEZF 180815Z AUTO 00000KT 10SM CLR 04/03 A3011 RMK AO2 T00370025 =
2017-12-18 02:55 METAR KEZF 180755Z AUTO 00000KT 10SM SCT050 04/03 A3011 RMK AO2 T00410027 =
2017-12-18 02:35 METAR KEZF 180735Z AUTO 00000KT 10SM OVC050 05/03 A3012 RMK AO2 T00530025 =
2017-12-18 02:15 METAR KEZF 180715Z AUTO 00000KT 10SM OVC050 06/03 A3012 RMK AO2 T00550026 =
2017-12-18 01:55 METAR KEZF 180655Z AUTO 00000KT 10SM OVC050 06/02 A3012 RMK AO2 T00570023 =
2017-12-18 01:35 METAR KEZF 180635Z AUTO 00000KT 10SM OVC050 06/02 A3012 RMK AO2 T00570023 =
2017-12-18 01:15 METAR KEZF 180615Z AUTO 00000KT 10SM OVC050 06/02 A3012 RMK AO2 T00570022 =
2017-12-18 00:55 METAR KEZF 180555Z AUTO 00000KT 10SM OVC055 05/03 A3013 RMK AO2 T00520030 10068
                 20046 400901044 =
2017-12-18 00:35 METAR KEZF 180535Z AUTO 00000KT 10SM OVC055 06/03 A3014 RMK AO2 T00580031 =
2017-12-18 00:15 METAR KEZF 180515Z AUTO 00000KT 10SM OVC055 06/02 A3014 RMK AO2 T00580020 =
2017-12-17 23:55 METAR KEZF 180455Z AUTO 00000KT 10SM OVC055 06/02 A3015 RMK AO2 T00620017 =
2017-12-17 23:35 METAR KEZF 180435Z AUTO 00000KT 10SM OVC065 06/02 A3015 RMK AO2 T00610020 =
2017-12-17 23:15 METAR KEZF 180415Z AUTO 00000KT 10SM OVC065 06/02 A3016 RMK AO2 T00600020 =
2017-12-17 22:55 METAR KEZF 180355Z AUTO 00000KT 10SM OVC065 07/02 A3015 RMK AO2 T00650019 =
2017-12-17 22:35 METAR KEZF 180335Z AUTO 20003KT 10SM OVC065 07/02 A3016 RMK AO2 T00660018 =
2017-12-17 22:15 METAR KEZF 180315Z AUTO 00000KT 10SM OVC065 07/02 A3016 RMK AO2 T00680015 =
2017-12-17 21:55 METAR KEZF 180255Z AUTO 00000KT 10SM OVC065 07/02 A3015 RMK AO2 T00650018 =
2017-12-17 21:35 METAR KEZF 180235Z AUTO 00000KT 10SM OVC075 06/02 A3015 RMK AO2 T00610023 =
2017-12-17 21:15 METAR KEZF 180215Z AUTO 16003KT 10SM OVC075 07/02 A3015 RMK AO2 T00680016 =
2017-12-17 20:55 METAR KEZF 180155Z AUTO 18004KT 10SM OVC075 07/02 A3016 RMK AO2 T00680019 =
2017-12-17 20:35 METAR KEZF 180135Z AUTO 18005KT 10SM OVC075 05/03 A3017 RMK AO2 T00540028 =
2017-12-17 20:15 METAR KEZF 180115Z AUTO 15005KT 10SM BKN080 OVC095 05/04 A3016 RMK AO2 T00480035
                 =
2017-12-17 19:55 METAR KEZF 180055Z AUTO 14004KT 10SM BKN090 05/04 A3017 RMK AO2 T00470035 =
2017-12-17 19:35 METAR KEZF 180035Z AUTO 00000KT 10SM -RA OVC080 05/03 A3019 RMK AO2 T00510032 =
2017-12-17 19:15 METAR KEZF 180015Z AUTO 00000KT 10SM -RA SCT039 BKN060 OVC080 05/03 A3020 RMK
                 AO2 T00530027 =
2017-12-17 18:55 METAR KEZF 172355Z AUTO 00000KT 10SM DZ BKN055 OVC070 06/03 A3020 RMK AO2
                 T00580026 10090 20058 =
2017-12-17 18:35 METAR KEZF 172335Z AUTO 00000KT 10SM SCT055 SCT065 BKN075 06/02 A3019 RMK AO2
                 T00600021 =
2017-12-17 18:15 METAR KEZF 172315Z AUTO 00000KT 10SM -DZ SCT075 BKN090 06/02 A3021 RMK AO2
                 T00600018 =
2017-12-17 17:55 METAR KEZF 172255Z AUTO 00000KT 10SM SCT070 OVC090 07/02 A3021 RMK AO2 T00700017
                 =
2017-12-17 17:35 METAR KEZF 172235Z AUTO 00000KT 10SM SCT070 OVC080 07/01 A3021 RMK AO2 T00700013
                 =
2017-12-17 17:15 METAR KEZF 172215Z AUTO 00000KT 10SM SCT075 BKN095 07/01 A3019 RMK AO2 T00700014
                 =
2017-12-17 16:55 METAR KEZF 172155Z AUTO 00000KT 10SM BKN095 07/02 A3018 RMK AO2 T00690015 =
2017-12-17 16:35 METAR KEZF 172135Z AUTO 00000KT 10SM SCT095 BKN110 08/01 A3017 RMK AO2 T00770013
                 =
2017-12-17 16:15 METAR KEZF 172115Z AUTO 00000KT 10SM BKN110 08/01 A3017 RMK AO2 T00820009 =
2017-12-17 15:55 METAR KEZF 172055Z AUTO 00000KT 10SM SCT120 09/01 A3016 RMK AO2 T00860007 =
2017-12-17 15:35 METAR KEZF 172035Z AUTO 00000KT 10SM CLR 09/01 A3016 RMK AO2 T00870005 =
2017-12-17 15:15 METAR KEZF 172015Z AUTO 11003KT 10SM CLR 09/00 A3017 RMK AO2 T00880004 =
2017-12-17 14:55 METAR KEZF 171955Z AUTO 07003KT 10SM CLR 09/00 A3018 RMK AO2 T00900001 =
2017-12-17 14:35 METAR KEZF 171935Z AUTO 14003KT 10SM CLR 09/00 A3019 RMK AO2 T00880000 =
2017-12-17 14:15 METAR KEZF 171915Z AUTO 00000KT 10SM CLR 09/00 A3019 RMK AO2 T00870000 =
2017-12-17 13:55 METAR KEZF 171855Z AUTO 08003KT 10SM CLR 09/00 A3018 RMK AO2 T00850000 =
2017-12-17 13:35 METAR KEZF 171835Z AUTO 14003KT 10SM CLR 09/00 A3019 RMK AO2 T00850000 =
2017-12-17 13:15 METAR KEZF 171815Z AUTO 00000KT 10SM CLR 09/00 A3020 RMK AO2 T00860000 =
2017-12-17 12:55 METAR KEZF 171755Z AUTO 00000KT 10SM CLR 09/00 A3021 RMK AO2 T00851004 10085
                 21041 =
2017-12-17 12:35 METAR KEZF 171735Z AUTO 00000KT 10SM CLR 09/00 A3022 RMK AO2 T00851005 =
2017-12-17 12:15 METAR KEZF 171715Z AUTO 00000KT 10SM CLR 08/00 A3023 RMK AO2 T00811004 =
2017-12-17 11:55 METAR KEZF 171655Z AUTO 00000KT 10SM CLR 08/00 A3025 RMK AO2 T00751001 =
2017-12-17 11:35 METAR KEZF 171635Z AUTO 00000KT 10SM CLR 06/00 A3026 RMK AO2 T00641001 =
2017-12-17 11:15 METAR KEZF 171615Z AUTO 00000KT 10SM CLR 06/00 A3027 RMK AO2 T00551003 =
2017-12-17 10:55 METAR KEZF 171555Z AUTO 00000KT 10SM CLR 04/00 A3028 RMK AO2 T00431003 =
2017-12-17 10:35 METAR KEZF 171535Z AUTO 00000KT 10SM CLR 04/M01 A3028 RMK AO2 T00361006 =
2017-12-17 10:15 METAR KEZF 171515Z AUTO 00000KT 10SM CLR 02/M01 A3027 RMK AO2 T00231010 =
2017-12-17 09:55 METAR KEZF 171455Z AUTO 00000KT 10SM CLR 01/M01 A3026 RMK AO2 T00101010 =
2017-12-17 09:35 METAR KEZF 171435Z AUTO 00000KT 10SM CLR 00/M02 A3025 RMK AO2 T00001017 =
2017-12-17 09:15 METAR KEZF 171415Z AUTO 00000KT 10SM CLR M01/M02 A3027 RMK AO2 T10111025 =
2017-12-17 08:55 METAR KEZF 171355Z AUTO 00000KT 10SM CLR M02/M03 A3027 RMK AO2 T10191029 =
2017-12-17 08:35 METAR KEZF 171335Z AUTO 00000KT 10SM CLR M02/M03 A3026 RMK AO2 T10241031 =
2017-12-17 08:15 METAR KEZF 171315Z AUTO 00000KT 10SM CLR M03/M04 A3027 RMK AO2 T10321038 =
2017-12-17 07:55 METAR KEZF 171255Z AUTO 00000KT 10SM CLR M03/M04 A3026 RMK AO2 T10351040 =

Support USWX by starting your Amazon purchase here.